Terminal Aerodrome Forecast
Issued by NWS St Louis, MO

Home | Current Version | Previous Version | Text Only | Print | Product List | Glossary On
Versions: 1 2 3 4 5 6 7 8 9 10 11 12 13 14 15 16 17 18 19 20 21 22 23 24 25 26 27 28 29 30 31
996
FTUS43 KLSX 192114 AAA
TAFSTL
TAF AMD
KSTL 192114Z 1921/2024 11007KT 2SM -RA BR OVC004
     FM200000 VRB03KT 1SM BR VCSH OVC003
     FM200500 VRB03KT 1/4SM FG OVC003
     FM201400 16005KT 2SM BR OVC008
     FM201900 16006KT P6SM OVC015=

USA.gov is the U.S. government's official web portal to all federal, state and local government web resources and services.